Christina O — C6FN7 — position and weather

sailwx.info

Track history (hours):
 
Tides and Currents Weather Stations Pressure Air Temp Water Temp Dewpoint Dewpoint Depression Visibility Wind Speed Wind Dir Waves Ship Positions

Christina O

Operator: V Ships Leisure SAM

Last reported at 2015-May-27 13:32 UTC. Time now 2015-May-30 00:14 UTC.
Position N 58°45' E 004°44'.

Length 186 m; draft 6.1 m.

Type: Passenger vessel. MMSI: 308322000.

Date/timePositionNaut miles runAvg speedWind from/ knotsBaromVisibWave heightAir tempDewpointWater temp
2015-May-27 13:32N 58°45' E 004°44'2016.6
2015-May-27 12:19N 58°30' E 005°10'1316.7
2015-May-27 11:33N 58°21' E 005°27'1716.8
2015-May-27 10:33N 58°10' E 005°51'13516.2
2015-May-27 02:14N 57°49' E 010°03'1416.7
2015-May-27 01:24N 57°49' E 010°28'1315.8
2015-May-27 00:33N 57°45' E 010°52'1616.0
2015-May-26 23:33N 57°34' E 011°14'1616.2
2015-May-26 22:33N 57°21' E 011°31'1717.3
2015-May-26 21:33N 57°04' E 011°42'1717.3
2015-May-26 20:33N 56°48' E 011°52'1817.5
2015-May-26 19:33N 56°31' E 012°00'1716.6
2015-May-26 18:33N 56°16' E 012°12'1717.0
2015-May-26 17:33N 56°05' E 012°36'1616.3
2015-May-26 16:33N 55°50' E 012°44'9 8.2
2015-May-26 15:29N 55°42' E 012°36'0 0.0
2015-May-26 14:32N 55°42' E 012°36'0 0.0
2015-May-26 13:32N 55°42' E 012°36'0 0.0
2015-May-26 12:32N 55°42' E 012°36'0 0.0
2015-May-26 11:32N 55°42' E 012°36'0 0.0
2015-May-26 10:32N 55°42' E 012°36'0 0.0
2015-May-26 09:32N 55°42' E 012°36'0 0.0
2015-May-26 08:32N 55°42' E 012°36'0 0.0
2015-May-26 07:32N 55°42' E 012°36'4 4.1
2015-May-26 06:34N 55°45' E 012°41'1312.5
2015-May-26 05:33N 55°57' E 012°38'1413.7
2015-May-26 04:33N 56°09' E 012°25'1515.3
2015-May-26 03:33N 56°19' E 012°03'1616.1
2015-May-26 02:33N 56°34' E 011°56'1615.7
2015-May-26 01:33N 56°49' E 011°49'1615.7
2015-May-26 00:33N 57°04' E 011°38'1616.0
2015-May-25 23:33N 57°19' E 011°30'1615.5
2015-May-25 22:33N 57°32' E 011°14'1616.0
2015-May-25 21:33N 57°43' E 010°52'  
2015-May-22 23:12N 56°16' W 002°19'52 2.5
2015-May-22 02:20N 57°05' W 001°52'1114.8
2015-May-22 01:34N 57°16' W 001°45'1515.0
2015-May-22 00:33N 57°30' W 001°36'1515.2
2015-May-21 23:34N 57°45' W 001°43'5315.4
2015-May-21 20:07N 58°34' W 002°20'1315.5
2015-May-21 19:14N 58°47' W 002°30'1115.5
2015-May-21 18:31N 58°57' W 002°38'1111.4
2015-May-21 17:33N 59°00' W 002°58'0 0.2
2015-May-21 16:31N 59°00' W 002°58'0 0.0
2015-May-21 15:31N 59°00' W 002°58'0 0.0
2015-May-21 14:31N 59°00' W 002°58'0 0.0
2015-May-21 13:31N 59°00' W 002°58'0 0.0
2015-May-21 12:31N 59°00' W 002°58'0 0.0
2015-May-21 11:31N 59°00' W 002°58'0 0.0
2015-May-21 10:31N 59°00' W 002°58'0 0.0
2015-May-21 09:31N 59°00' W 002°58'0 0.0
2015-May-21 08:31N 59°00' W 002°58'0 0.0
2015-May-21 07:31N 59°00' W 002°58'0 0.0
2015-May-21 06:31N 59°00' W 002°58'4 4.0
2015-May-21 05:33N 59°01' W 002°51'1110.6
2015-May-21 04:34N 58°54' W 002°35'1212.0
2015-May-21 03:34N 58°43' W 002°42'8 8.2
2015-May-21 02:34N 58°40' W 002°57'1211.8
2015-May-21 01:34N 58°44' W 003°19'1212.1
2015-May-21 00:33N 58°44' W 003°42'1212.2
2015-May-20 23:33N 58°45' W 004°05'2512.3
2015-May-20 21:33N 58°44' W 004°53'2512.2
2015-May-20 19:29N 58°25' W 005°24'1212.5
2015-May-20 18:33N 58°15' W 005°36'1212.4
2015-May-20 17:33N 58°05' W 005°48'1312.2
2015-May-20 16:29N 57°54' W 006°01'12211.1
2015-May-20 05:25N 55°55' W 006°56'1213.7
2015-May-20 04:33N 55°44' W 006°46'1515.0
2015-May-20 03:33N 55°32' W 006°31'1515.1
2015-May-20 02:33N 55°25' W 006°07'1515.0
2015-May-20 01:33N 55°14' W 005°50'1514.5
2015-May-20 00:33N 55°01' W 005°37'1313.5
2015-May-19 23:33N 54°48' W 005°36'1312.6
2015-May-19 22:33N 54°39' W 005°52'2 1.0
2015-May-19 20:10N 54°37' W 005°54'0 0.0
2015-May-19 19:22N 54°37' W 005°54'0 0.0
2015-May-19 18:10N 54°37' W 005°54'0 0.0
2015-May-19 16:21N 54°37' W 005°54'0 0.0
2015-May-19 15:15N 54°37' W 005°54'0 0.0
2015-May-19 10:22N 54°37' W 005°54'0 0.0
2015-May-19 06:27N 54°37' W 005°54'7 7.4
2015-May-19 05:33N 54°42' W 005°46'1111.1
2015-May-19 04:33N 54°42' W 005°27'1414.5
2015-May-19 03:33N 54°28' W 005°19'1515.2
2015-May-19 02:33N 54°13' W 005°25'1715.7
2015-May-19 01:27N 53°57' W 005°36'1415.8
2015-May-19 00:33N 53°44' W 005°44'  
Track history (hours):
 
Tides and Currents Weather Stations Pressure Air Temp Water Temp Dewpoint Dewpoint Depression Visibility Wind Speed Wind Dir Waves Ship Positions

Christina O

Operator: V Ships Leisure SAM

Last reported at 2015-May-27 13:32 UTC. Time now 2015-May-30 00:14 UTC.
Position N 58°45' E 004°44'.

Length 186 m; draft 6.1 m.

Type: Passenger vessel. MMSI: 308322000.

Date/timePositionNaut miles runAvg speedWind from/ knotsBaromVisibWave heightAir tempDewpointWater temp
2015-May-27 13:32N 58°45' E 004°44'2016.6
2015-May-27 12:19N 58°30' E 005°10'1316.7
2015-May-27 11:33N 58°21' E 005°27'1716.8
2015-May-27 10:33N 58°10' E 005°51'13516.2
2015-May-27 02:14N 57°49' E 010°03'1416.7
2015-May-27 01:24N 57°49' E 010°28'1315.8
2015-May-27 00:33N 57°45' E 010°52'1616.0
2015-May-26 23:33N 57°34' E 011°14'1616.2
2015-May-26 22:33N 57°21' E 011°31'1717.3
2015-May-26 21:33N 57°04' E 011°42'1717.3
2015-May-26 20:33N 56°48' E 011°52'1817.5
2015-May-26 19:33N 56°31' E 012°00'1716.6
2015-May-26 18:33N 56°16' E 012°12'1717.0
2015-May-26 17:33N 56°05' E 012°36'1616.3
2015-May-26 16:33N 55°50' E 012°44'9 8.2
2015-May-26 15:29N 55°42' E 012°36'0 0.0
2015-May-26 14:32N 55°42' E 012°36'0 0.0
2015-May-26 13:32N 55°42' E 012°36'0 0.0
2015-May-26 12:32N 55°42' E 012°36'0 0.0
2015-May-26 11:32N 55°42' E 012°36'0 0.0
2015-May-26 10:32N 55°42' E 012°36'0 0.0
2015-May-26 09:32N 55°42' E 012°36'0 0.0
2015-May-26 08:32N 55°42' E 012°36'0 0.0
2015-May-26 07:32N 55°42' E 012°36'4 4.1
2015-May-26 06:34N 55°45' E 012°41'1312.5
2015-May-26 05:33N 55°57' E 012°38'1413.7
2015-May-26 04:33N 56°09' E 012°25'1515.3
2015-May-26 03:33N 56°19' E 012°03'1616.1
2015-May-26 02:33N 56°34' E 011°56'1615.7
2015-May-26 01:33N 56°49' E 011°49'1615.7
2015-May-26 00:33N 57°04' E 011°38'1616.0
2015-May-25 23:33N 57°19' E 011°30'1615.5
2015-May-25 22:33N 57°32' E 011°14'1616.0
2015-May-25 21:33N 57°43' E 010°52'  
2015-May-22 23:12N 56°16' W 002°19'52 2.5
2015-May-22 02:20N 57°05' W 001°52'1114.8
2015-May-22 01:34N 57°16' W 001°45'1515.0
2015-May-22 00:33N 57°30' W 001°36'1515.2
2015-May-21 23:34N 57°45' W 001°43'5315.4
2015-May-21 20:07N 58°34' W 002°20'1315.5
2015-May-21 19:14N 58°47' W 002°30'1115.5
2015-May-21 18:31N 58°57' W 002°38'1111.4
2015-May-21 17:33N 59°00' W 002°58'0 0.2
2015-May-21 16:31N 59°00' W 002°58'0 0.0
2015-May-21 15:31N 59°00' W 002°58'0 0.0
2015-May-21 14:31N 59°00' W 002°58'0 0.0
2015-May-21 13:31N 59°00' W 002°58'0 0.0
2015-May-21 12:31N 59°00' W 002°58'0 0.0
2015-May-21 11:31N 59°00' W 002°58'0 0.0
2015-May-21 10:31N 59°00' W 002°58'0 0.0
2015-May-21 09:31N 59°00' W 002°58'0 0.0
2015-May-21 08:31N 59°00' W 002°58'0 0.0
2015-May-21 07:31N 59°00' W 002°58'0 0.0
2015-May-21 06:31N 59°00' W 002°58'4 4.0
2015-May-21 05:33N 59°01' W 002°51'1110.6
2015-May-21 04:34N 58°54' W 002°35'1212.0
2015-May-21 03:34N 58°43' W 002°42'8 8.2
2015-May-21 02:34N 58°40' W 002°57'1211.8
2015-May-21 01:34N 58°44' W 003°19'1212.1
2015-May-21 00:33N 58°44' W 003°42'1212.2
2015-May-20 23:33N 58°45' W 004°05'2512.3
2015-May-20 21:33N 58°44' W 004°53'2512.2
2015-May-20 19:29N 58°25' W 005°24'1212.5
2015-May-20 18:33N 58°15' W 005°36'1212.4
2015-May-20 17:33N 58°05' W 005°48'1312.2
2015-May-20 16:29N 57°54' W 006°01'12211.1
2015-May-20 05:25N 55°55' W 006°56'1213.7
2015-May-20 04:33N 55°44' W 006°46'1515.0
2015-May-20 03:33N 55°32' W 006°31'1515.1
2015-May-20 02:33N 55°25' W 006°07'1515.0
2015-May-20 01:33N 55°14' W 005°50'1514.5
2015-May-20 00:33N 55°01' W 005°37'1313.5
2015-May-19 23:33N 54°48' W 005°36'1312.6
2015-May-19 22:33N 54°39' W 005°52'2 1.0
2015-May-19 20:10N 54°37' W 005°54'0 0.0
2015-May-19 19:22N 54°37' W 005°54'0 0.0
2015-May-19 18:10N 54°37' W 005°54'0 0.0
2015-May-19 16:21N 54°37' W 005°54'0 0.0
2015-May-19 15:15N 54°37' W 005°54'0 0.0
2015-May-19 10:22N 54°37' W 005°54'0 0.0
2015-May-19 06:27N 54°37' W 005°54'7 7.4
2015-May-19 05:33N 54°42' W 005°46'1111.1
2015-May-19 04:33N 54°42' W 005°27'1414.5
2015-May-19 03:33N 54°28' W 005°19'1515.2
2015-May-19 02:33N 54°13' W 005°25'1715.7
2015-May-19 01:27N 53°57' W 005°36'1415.8
2015-May-19 00:33N 53°44' W 005°44'  

Dump ship's entire track history